createdAt,value
2023-04-14T00:00:36.845Z,100487.72
2023-04-14T00:03:03.951Z,100483.34
2023-04-14T00:05:31.501Z,100480.16
2023-04-14T00:07:58.158Z,100482.06
2023-04-14T00:10:25.051Z,100479.69
2023-04-14T00:12:52.023Z,100481.59
2023-04-14T00:15:18.856Z,100482.78
2023-04-14T00:17:45.491Z,100491.00
2023-04-14T00:20:12.139Z,100489.75
2023-04-14T00:22:38.687Z,100497.19
2023-04-14T00:25:05.653Z,100497.19
2023-04-14T00:27:32.151Z,100503.06
2023-04-14T00:29:58.662Z,100508.13
2023-04-14T00:32:25.286Z,100508.50
2023-04-14T00:34:51.944Z,100504.13
2023-04-14T00:37:18.462Z,100494.25
2023-04-14T00:39:44.956Z,100498.13
2023-04-14T00:42:11.654Z,100503.63
2023-04-14T00:44:38.128Z,100507.50
2023-04-14T00:47:05.670Z,100509.03
2023-04-14T00:49:32.413Z,100508.16
2023-04-14T00:51:59.415Z,100510.91
2023-04-14T00:54:26.518Z,100518.75
2023-04-14T00:56:54.038Z,100515.59
2023-04-14T00:59:20.924Z,100512.00
2023-04-14T01:01:47.466Z,100513.09
2023-04-14T01:04:15.959Z,100509.88
2023-04-14T01:06:42.534Z,100521.28
2023-04-14T01:09:09.590Z,100519.66
2023-04-14T01:11:45.283Z,100533.41
2023-04-14T01:14:50.593Z,100528.63
2023-04-14T01:17:22.747Z,100524.66
2023-04-14T01:20:20.606Z,100530.16
2023-04-14T01:22:55.319Z,100534.44
2023-04-14T01:26:10.748Z,100531.19
2023-04-14T01:29:34.377Z,100537.44
2023-04-14T01:32:05.652Z,100544.94
2023-04-14T01:34:50.724Z,100544.94
2023-04-14T01:37:21.450Z,100544.13
2023-04-14T01:39:54.318Z,100540.19
2023-04-14T01:42:25.288Z,100549.19
2023-04-14T01:44:56.913Z,100545.59
2023-04-14T01:47:26.257Z,100543.66
2023-04-14T01:49:53.847Z,100553.91
2023-04-14T01:52:21.145Z,100540.53
2023-04-14T01:54:51.716Z,100539.75
2023-04-14T01:57:22.646Z,100549.53
2023-04-14T01:59:51.967Z,100549.81
2023-04-14T02:02:21.216Z,100552.56
2023-04-14T02:04:49.628Z,100547.47
2023-04-14T02:07:17.593Z,100554.59
2023-04-14T02:09:45.607Z,100553.38
2023-04-14T02:12:12.694Z,100539.28
2023-04-14T02:14:41.811Z,100546.34
2023-04-14T02:17:11.757Z,100544.84
2023-04-14T02:19:39.306Z,100544.84
2023-04-14T02:22:05.996Z,100546.41
2023-04-14T02:24:32.648Z,100541.72
2023-04-14T02:27:07.140Z,100538.16
2023-04-14T02:29:36.097Z,100546.78
2023-04-14T02:32:11.497Z,100549.88
2023-04-14T02:34:55.617Z,100555.31
2023-04-14T02:37:27.270Z,100561.25
2023-04-14T02:39:59.141Z,100558.94
2023-04-14T02:42:27.454Z,100558.56
2023-04-14T02:45:22.529Z,100552.28
2023-04-14T02:47:54.457Z,100555.44
2023-04-14T02:50:22.532Z,100555.00
2023-04-14T02:52:51.705Z,100558.13
2023-04-14T02:55:23.067Z,100553.00
2023-04-14T02:57:51.655Z,100563.63
2023-04-14T03:00:19.146Z,100560.81
2023-04-14T03:02:47.265Z,100558.47
2023-04-14T03:05:14.460Z,100567.91
2023-04-14T03:07:43.982Z,100574.19
2023-04-14T03:10:14.448Z,100575.78
2023-04-14T03:12:42.197Z,100578.47
2023-04-14T03:15:10.255Z,100575.72
2023-04-14T03:17:38.097Z,100571.75
2023-04-14T03:20:05.302Z,100578.47
2023-04-14T03:22:36.135Z,100568.22
2023-04-14T03:25:02.760Z,100561.88
2023-04-14T03:27:30.388Z,100566.56
2023-04-14T03:30:03.706Z,100569.72
2023-04-14T03:32:35.793Z,100575.22
2023-04-14T03:35:02.974Z,100569.31
2023-04-14T03:37:32.081Z,100564.53
2023-04-14T03:40:02.164Z,100576.78
2023-04-14T03:42:30.026Z,100579.09
2023-04-14T03:44:58.566Z,100581.84
2023-04-14T03:47:26.992Z,100580.28
2023-04-14T03:49:57.596Z,100582.59
2023-04-14T03:52:26.809Z,100584.13
2023-04-14T03:54:58.928Z,100586.03
2023-04-14T03:57:29.220Z,100583.16
2023-04-14T03:59:56.963Z,100585.97
2023-04-14T04:02:25.737Z,100584.00
2023-04-14T04:04:54.403Z,100589.94
2023-04-14T04:07:21.855Z,100591.44
2023-04-14T04:09:50.679Z,100602.03
2023-04-14T04:12:20.360Z,100605.47
2023-04-14T04:14:47.142Z,100605.84
2023-04-14T04:17:16.239Z,100598.34
2023-04-14T04:19:44.683Z,100605.75
2023-04-14T04:22:14.384Z,100603.00
2023-04-14T04:24:42.468Z,100599.06
2023-04-14T04:27:20.289Z,100598.28
2023-04-14T04:29:53.752Z,100602.63
2023-04-14T04:32:20.976Z,100608.09
2023-04-14T04:34:50.900Z,100608.03
2023-04-14T04:37:19.354Z,100606.53
2023-04-14T04:39:45.904Z,100598.94
2023-04-14T04:42:12.407Z,100600.97
2023-04-14T04:44:38.935Z,100605.97
2023-04-14T04:47:05.800Z,100600.88
2023-04-14T04:49:32.354Z,100598.59
2023-04-14T04:51:59.703Z,100595.09
2023-04-14T04:54:27.128Z,100596.66
2023-04-14T04:56:54.006Z,100597.38
2023-04-14T04:59:20.445Z,100598.91
2023-04-14T05:01:47.060Z,100609.13
2023-04-14T05:04:13.595Z,100600.03
2023-04-14T05:06:40.219Z,100607.91
2023-04-14T05:09:07.141Z,100608.63
2023-04-14T05:11:33.959Z,100614.13
2023-04-14T05:14:01.192Z,100609.00
2023-04-14T05:16:28.411Z,100611.03
2023-04-14T05:18:54.918Z,100615.63
2023-04-14T05:21:21.612Z,100618.72
2023-04-14T05:23:48.270Z,100624.63
2023-04-14T05:26:38.812Z,100616.41
2023-04-14T05:29:02.043Z,100629.47
2023-04-14T05:31:28.650Z,100631.47
2023-04-14T05:33:55.134Z,100629.94
2023-04-14T05:36:21.621Z,100627.59
2023-04-14T05:38:48.098Z,100635.97
2023-04-14T05:41:14.584Z,100632.44
2023-04-14T05:43:41.140Z,100627.00
2023-04-14T05:46:07.754Z,100632.22
2023-04-14T05:48:36.306Z,100628.38
2023-04-14T05:51:02.741Z,100632.75
2023-04-14T05:53:29.180Z,100626.88
2023-04-14T05:55:57.151Z,100634.41
2023-04-14T05:58:26.234Z,100631.72
2023-04-14T06:00:52.869Z,100631.34
2023-04-14T06:03:19.708Z,100637.31
2023-04-14T06:05:48.173Z,100638.13
2023-04-14T06:08:14.707Z,100642.44
2023-04-14T06:10:41.370Z,100635.41
2023-04-14T06:13:08.693Z,100632.31
2023-04-14T06:15:35.239Z,100626.47
2023-04-14T06:18:01.813Z,100623.88
2023-04-14T06:20:32.496Z,100622.34
2023-04-14T06:23:00.798Z,100624.84
2023-04-14T06:25:27.260Z,100620.25
2023-04-14T06:27:53.700Z,100621.91
2023-04-14T06:30:20.224Z,100602.81
2023-04-14T06:32:48.568Z,100607.28
2023-04-14T06:35:29.643Z,100601.13
2023-04-14T06:37:58.625Z,100603.66
2023-04-14T06:40:25.285Z,100601.81
2023-04-14T06:42:51.703Z,100601.56
2023-04-14T06:45:18.261Z,100602.47
2023-04-14T06:47:44.839Z,100599.50
2023-04-14T06:50:12.224Z,100611.06
2023-04-14T06:52:38.668Z,100602.94
2023-04-14T06:55:05.600Z,100601.06
2023-04-14T06:57:32.092Z,100612.56
2023-04-14T06:59:58.604Z,100609.97
2023-04-14T07:02:25.266Z,100612.81
2023-04-14T07:04:52.128Z,100613.66
2023-04-14T07:07:18.632Z,100611.34
2023-04-14T07:09:45.318Z,100608.63
2023-04-14T07:12:16.879Z,100596.81
2023-04-14T07:14:43.583Z,100599.63
2023-04-14T07:17:10.040Z,100605.94
2023-04-14T07:19:36.537Z,100598.50
2023-04-14T07:22:03.045Z,100598.50
2023-04-14T07:24:29.525Z,100600.94
2023-04-14T07:26:56.140Z,100598.94
2023-04-14T07:29:22.665Z,100600.56
2023-04-14T07:31:49.219Z,100598.19
2023-04-14T07:34:15.693Z,100597.78
2023-04-14T07:36:42.523Z,100593.06
2023-04-14T07:39:09.062Z,100591.88
2023-04-14T07:41:35.553Z,100589.13
2023-04-14T07:44:02.341Z,100579.22
2023-04-14T07:46:29.092Z,100583.97
2023-04-14T07:48:55.629Z,100583.94
2023-04-14T07:51:24.613Z,100576.41
2023-04-14T07:53:53.001Z,100589.03
2023-04-14T07:56:19.535Z,100587.78
2023-04-14T07:58:46.505Z,100586.22
2023-04-14T08:01:14.106Z,100595.25
2023-04-14T08:03:43.567Z,100590.09
2023-04-14T08:06:11.759Z,100591.63
2023-04-14T08:08:39.827Z,100589.22
2023-04-14T08:11:06.286Z,100590.69
2023-04-14T08:13:32.771Z,100587.03
2023-04-14T08:15:59.245Z,100589.00
2023-04-14T08:18:25.892Z,100588.91
2023-04-14T08:20:52.401Z,100588.09
2023-04-14T08:23:18.909Z,100591.56
2023-04-14T08:25:45.649Z,100578.81
2023-04-14T08:28:12.726Z,100589.81
2023-04-14T08:30:39.226Z,100583.00
2023-04-14T08:33:05.787Z,100578.63
2023-04-14T08:35:39.537Z,100580.91
2023-04-14T08:38:08.200Z,100574.91
2023-04-14T08:40:41.107Z,100576.03
2023-04-14T08:43:07.829Z,100576.25
2023-04-14T08:45:35.546Z,100578.97
2023-04-14T08:48:03.529Z,100577.63
2023-04-14T08:50:37.604Z,100579.25
2023-04-14T08:53:08.567Z,100584.59
2023-04-14T08:55:36.832Z,100580.94
2023-04-14T08:58:04.727Z,100581.28
2023-04-14T09:00:31.347Z,100585.13
2023-04-14T09:02:58.799Z,100574.22
2023-04-14T09:05:26.094Z,100569.78
2023-04-14T09:07:53.324Z,100571.16
2023-04-14T09:10:22.196Z,100567.44
2023-04-14T09:12:49.289Z,100563.72
2023-04-14T09:15:16.938Z,100566.78
2023-04-14T09:17:43.947Z,100557.53
2023-04-14T09:20:36.435Z,100566.06
2023-04-14T09:22:58.568Z,100569.16
2023-04-14T09:25:25.153Z,100568.53
2023-04-14T09:27:52.112Z,100566.00
2023-04-14T09:30:19.085Z,100562.13
2023-04-14T09:32:45.614Z,100557.91
2023-04-14T09:35:16.202Z,100560.88
2023-04-14T09:37:44.642Z,100557.66
2023-04-14T09:40:26.465Z,100555.38
2023-04-14T09:42:54.136Z,100556.41
2023-04-14T09:45:20.645Z,100553.34
2023-04-14T09:47:47.187Z,100553.38
2023-04-14T09:50:13.691Z,100555.81
2023-04-14T09:52:48.425Z,100556.81
2023-04-14T09:55:16.811Z,100553.50
2023-04-14T09:57:44.663Z,100547.81
2023-04-14T10:00:21.500Z,100543.13
2023-04-14T10:02:51.044Z,100544.34
2023-04-14T10:05:21.423Z,100543.34
2023-04-14T10:07:47.855Z,100548.50
2023-04-14T10:10:14.366Z,100547.38
2023-04-14T10:12:45.672Z,100539.09
2023-04-14T10:15:17.218Z,100547.84
2023-04-14T10:17:43.717Z,100531.41
2023-04-14T10:20:10.685Z,100525.59
2023-04-14T10:22:39.094Z,100519.31
2023-04-14T10:25:09.129Z,100515.41
2023-04-14T10:27:35.920Z,100512.97
2023-04-14T10:30:02.561Z,100504.94
2023-04-14T10:32:36.686Z,100501.56
2023-04-14T10:35:05.316Z,100503.63
2023-04-14T10:37:35.149Z,100499.56
2023-04-14T10:40:09.807Z,100496.75
2023-04-14T10:42:56.080Z,100503.09
2023-04-14T10:45:22.796Z,100485.31
2023-04-14T10:47:50.200Z,100479.84
2023-04-14T10:50:18.563Z,100484.13
2023-04-14T10:52:54.250Z,100476.88
2023-04-14T10:55:28.339Z,100484.38
2023-04-14T10:58:06.326Z,100476.47
2023-04-14T11:00:37.909Z,100479.03
2023-04-14T11:03:08.553Z,100462.38
2023-04-14T11:05:35.611Z,100470.88
2023-04-14T11:08:16.151Z,100467.78
2023-04-14T11:11:01.975Z,100463.94
2023-04-14T11:13:29.910Z,100462.72
2023-04-14T11:16:04.000Z,100457.47
2023-04-14T11:18:30.830Z,100465.88
2023-04-14T11:21:06.663Z,100456.81
2023-04-14T11:23:34.794Z,100457.38
2023-04-14T11:26:01.612Z,100443.09
2023-04-14T11:28:38.608Z,100457.09
2023-04-14T11:31:06.834Z,100445.41
2023-04-14T11:33:34.379Z,100443.94
2023-04-14T11:36:02.427Z,100452.81
2023-04-14T11:38:30.363Z,100439.78
2023-04-14T11:40:57.397Z,100443.19
2023-04-14T11:43:24.828Z,100434.59
2023-04-14T11:45:52.162Z,100439.41
2023-04-14T11:48:20.343Z,100432.56
2023-04-14T11:50:48.151Z,100422.72
2023-04-14T11:53:19.007Z,100431.00
2023-04-14T11:55:48.029Z,100422.78
2023-04-14T11:58:20.153Z,100426.63
2023-04-14T12:00:48.492Z,100417.72
2023-04-14T12:03:15.416Z,100431.31
2023-04-14T12:05:42.616Z,100428.28
2023-04-14T12:10:57.704Z,100419.59
2023-04-14T12:13:24.837Z,100417.41
2023-04-14T12:15:52.761Z,100427.72
2023-04-14T12:20:48.343Z,100412.16
2023-04-14T12:23:15.997Z,100406.13
2023-04-14T12:25:42.676Z,100405.81
2023-04-14T12:28:09.221Z,100399.28
2023-04-14T12:30:37.310Z,100392.41
2023-04-14T12:33:13.323Z,100396.06
2023-04-14T12:35:43.093Z,100403.09
2023-04-14T12:38:14.382Z,100400.13
2023-04-14T12:40:43.726Z,100392.38
2023-04-14T12:43:10.518Z,100391.88
2023-04-14T12:45:44.513Z,100396.34
2023-04-14T12:48:12.315Z,100388.72
2023-04-14T12:50:39.471Z,100381.56
2023-04-14T12:53:25.241Z,100380.00
2023-04-14T12:56:11.548Z,100385.28
2023-04-14T12:58:40.471Z,100383.50
2023-04-14T13:01:09.378Z,100378.78
2023-04-14T13:03:39.092Z,100377.94
2023-04-14T13:06:05.914Z,100369.00
2023-04-14T13:08:32.471Z,100361.97
2023-04-14T13:10:58.926Z,100369.56
2023-04-14T13:13:25.368Z,100377.97
2023-04-14T13:16:14.603Z,100368.22
2023-04-14T13:18:38.302Z,100362.81
2023-04-14T13:21:04.941Z,100360.09
2023-04-14T13:23:31.777Z,100359.19
2023-04-14T13:25:59.052Z,100367.13
2023-04-14T13:28:26.612Z,100361.88
2023-04-14T13:30:54.757Z,100357.25
2023-04-14T13:33:22.078Z,100346.16
2023-04-14T13:35:48.664Z,100347.91
2023-04-14T13:38:15.435Z,100339.88
2023-04-14T13:40:41.987Z,100341.09
2023-04-14T13:43:08.803Z,100336.56
2023-04-14T13:45:35.757Z,100340.91
2023-04-14T13:48:02.585Z,100347.34
2023-04-14T13:50:29.739Z,100339.75
2023-04-14T13:52:56.290Z,100345.53
2023-04-14T13:55:22.758Z,100341.31
2023-04-14T13:57:49.553Z,100339.13
2023-04-14T14:00:16.332Z,100335.72
2023-04-14T14:02:42.856Z,100332.66
2023-04-14T14:05:10.898Z,100332.72
2023-04-14T14:07:38.235Z,100330.72
2023-04-14T14:10:05.727Z,100328.38
2023-04-14T14:12:34.794Z,100335.69
2023-04-14T14:15:01.753Z,100325.56
2023-04-14T14:17:29.053Z,100330.09
2023-04-14T14:19:55.774Z,100318.56
2023-04-14T14:22:22.313Z,100329.09
2023-04-14T14:24:48.821Z,100322.28
2023-04-14T14:27:18.360Z,100321.91
2023-04-14T14:29:45.121Z,100325.75
2023-04-14T14:32:11.619Z,100318.41
2023-04-14T14:34:39.080Z,100323.31
2023-04-14T14:37:05.655Z,100329.00
2023-04-14T14:39:32.672Z,100325.97
2023-04-14T14:41:59.420Z,100313.84
2023-04-14T14:44:26.005Z,100320.19
2023-04-14T14:46:53.147Z,100301.25
2023-04-14T14:49:20.961Z,100310.13
2023-04-14T14:51:48.360Z,100312.00
2023-04-14T14:54:14.986Z,100280.81
2023-04-14T14:56:41.991Z,100303.03
2023-04-14T14:59:08.564Z,100300.44
2023-04-14T15:01:35.673Z,100302.28
2023-04-14T15:04:03.015Z,100300.75
2023-04-14T15:06:29.864Z,100295.28
2023-04-14T15:08:56.808Z,100298.41
2023-04-14T15:11:24.346Z,100295.69
2023-04-14T15:13:51.094Z,100294.16
2023-04-14T15:16:17.571Z,100290.09
2023-04-14T15:18:44.776Z,100303.06
2023-04-14T15:21:11.290Z,100294.03
2023-04-14T15:23:39.621Z,100299.03
2023-04-14T15:26:06.414Z,100299.19
2023-04-14T15:28:32.892Z,100300.44
2023-04-14T15:30:59.392Z,100295.94
2023-04-14T15:33:26.373Z,100298.25
2023-04-14T15:35:52.805Z,100301.22
2023-04-14T15:38:19.828Z,100290.59
2023-04-14T15:40:46.602Z,100290.06
2023-04-14T15:43:13.140Z,100288.50
2023-04-14T15:45:40.064Z,100289.59
2023-04-14T15:48:06.701Z,100295.13
2023-04-14T15:50:33.277Z,100286.53
2023-04-14T15:52:59.730Z,100289.06
2023-04-14T15:55:27.488Z,100296.13
2023-04-14T15:57:54.070Z,100295.78
2023-04-14T16:00:22.468Z,100297.16
2023-04-14T16:02:49.066Z,100284.44
2023-04-14T16:05:16.784Z,100296.97
2023-04-14T16:07:45.525Z,100291.75
2023-04-14T16:10:12.194Z,100284.97
2023-04-14T16:12:39.249Z,100290.25
2023-04-14T16:15:09.173Z,100283.69
2023-04-14T16:17:35.757Z,100283.00
2023-04-14T16:20:02.879Z,100287.84
2023-04-14T16:22:31.114Z,100287.84
2023-04-14T16:24:57.596Z,100282.50
2023-04-14T16:27:24.181Z,100283.88
2023-04-14T16:29:53.285Z,100279.75
2023-04-14T16:32:19.749Z,100290.59
2023-04-14T16:34:46.649Z,100278.22
2023-04-14T16:37:13.185Z,100279.81
2023-04-14T16:39:41.136Z,100276.56
2023-04-14T16:42:09.332Z,100273.75
2023-04-14T16:44:37.569Z,100272.63
2023-04-14T16:47:04.034Z,100282.91
2023-04-14T16:49:30.639Z,100282.25
2023-04-14T16:51:57.529Z,100283.16
2023-04-14T16:54:24.048Z,100288.53
2023-04-14T16:56:51.904Z,100290.53
2023-04-14T16:59:18.456Z,100288.31
2023-04-14T17:01:45.242Z,100284.53
2023-04-14T17:04:12.253Z,100287.09
2023-04-14T17:06:38.953Z,100288.44
2023-04-14T17:09:05.664Z,100293.72
2023-04-14T17:11:32.410Z,100280.97
2023-04-14T17:13:58.879Z,100279.41
2023-04-14T17:16:25.363Z,100287.78
2023-04-14T17:18:51.924Z,100291.09
2023-04-14T17:21:18.404Z,100288.44
2023-04-14T17:23:44.905Z,100280.38
2023-04-14T17:26:11.480Z,100294.34
2023-04-14T17:28:38.949Z,100291.31
2023-04-14T17:31:14.157Z,100289.84
2023-04-14T17:33:44.789Z,100289.97
2023-04-14T17:36:15.512Z,100288.53
2023-04-14T17:38:43.155Z,100289.41
2023-04-14T17:41:10.985Z,100295.53
2023-04-14T17:43:39.478Z,100295.72
2023-04-14T17:46:06.379Z,100310.59
2023-04-14T17:48:35.837Z,100300.25
2023-04-14T17:51:03.120Z,100308.19
2023-04-14T17:53:30.927Z,100313.53
2023-04-14T17:55:57.743Z,100311.28
2023-04-14T17:58:25.241Z,100321.97
2023-04-14T18:00:52.073Z,100323.72
2023-04-14T18:03:18.603Z,100316.47
2023-04-14T18:05:45.363Z,100324.91
2023-04-14T18:08:12.071Z,100322.00
2023-04-14T18:10:39.190Z,100335.78
2023-04-14T18:13:05.763Z,100329.72
2023-04-14T18:15:32.244Z,100338.56
2023-04-14T18:17:58.780Z,100338.13
2023-04-14T18:20:26.329Z,100343.97
2023-04-14T18:22:57.523Z,100338.88
2023-04-14T18:25:24.040Z,100346.72
2023-04-14T18:30:22.990Z,100344.16
2023-04-14T18:32:55.297Z,100353.06
2023-04-14T18:35:22.063Z,100346.00
2023-04-14T18:37:48.745Z,100348.16
2023-04-14T18:40:15.855Z,100339.09
2023-04-14T18:42:42.283Z,100350.38
2023-04-14T18:45:09.674Z,100349.31
2023-04-14T18:47:36.262Z,100350.22
2023-04-14T18:50:03.836Z,100355.94
2023-04-14T18:52:30.494Z,100349.38
2023-04-14T18:54:57.337Z,100351.06
2023-04-14T18:57:23.897Z,100352.06
2023-04-14T18:59:50.429Z,100352.19
2023-04-14T19:02:16.927Z,100350.75
2023-04-14T19:04:43.681Z,100356.78
2023-04-14T19:07:10.639Z,100354.16
2023-04-14T19:09:37.637Z,100351.50
2023-04-14T19:12:04.248Z,100362.72
2023-04-14T19:14:30.747Z,100353.31
2023-04-14T19:16:57.902Z,100359.78
2023-04-14T19:19:25.026Z,100353.16
2023-04-14T19:21:51.636Z,100356.09
2023-04-14T19:24:18.642Z,100359.41
2023-04-14T19:26:45.151Z,100355.53
2023-04-14T19:29:11.764Z,100361.59
2023-04-14T19:31:38.543Z,100364.06
2023-04-14T19:34:05.005Z,100364.59
2023-04-14T19:36:32.325Z,100353.59
2023-04-14T19:38:58.967Z,100361.22
2023-04-14T19:41:25.981Z,100360.91
2023-04-14T19:43:52.445Z,100359.38
2023-04-14T19:46:18.987Z,100356.69
2023-04-14T19:48:45.706Z,100366.31
2023-04-14T19:51:12.129Z,100358.88
2023-04-14T19:53:38.646Z,100377.16
2023-04-14T19:56:05.700Z,100365.44
2023-04-14T19:58:32.812Z,100374.56
2023-04-14T20:00:59.414Z,100367.91
2023-04-14T20:03:26.784Z,100367.19
2023-04-14T20:05:55.863Z,100366.41
2023-04-14T20:08:23.538Z,100368.84
2023-04-14T20:10:52.630Z,100366.56
2023-04-14T20:13:24.383Z,100367.44
2023-04-14T20:15:53.835Z,100364.69
2023-04-14T20:18:20.978Z,100367.13
2023-04-14T20:20:48.589Z,100362.53
2023-04-14T20:23:15.814Z,100374.41
2023-04-14T20:25:43.955Z,100372.13
2023-04-14T20:28:10.491Z,100372.94
2023-04-14T20:30:37.695Z,100374.16
2023-04-14T20:33:04.571Z,100371.78
2023-04-14T20:35:34.712Z,100373.78
2023-04-14T20:38:01.233Z,100377.78
2023-04-14T20:40:27.719Z,100385.72
2023-04-14T20:42:54.434Z,100375.53
2023-04-14T20:45:22.078Z,100385.03
2023-04-14T20:47:49.200Z,100390.56
2023-04-14T20:50:16.982Z,100390.22
2023-04-14T20:52:44.663Z,100387.88
2023-04-14T20:55:13.298Z,100387.88
2023-04-14T20:57:40.687Z,100395.81
2023-04-14T21:00:10.116Z,100391.91
2023-04-14T21:02:40.029Z,100394.72
2023-04-14T21:05:07.012Z,100401.84
2023-04-14T21:07:35.512Z,100397.91
2023-04-14T21:10:04.059Z,100396.34
2023-04-14T21:12:33.778Z,100399.94
2023-04-14T21:15:41.649Z,100396.03
2023-04-14T21:17:51.263Z,100391.28
2023-04-14T21:20:17.717Z,100396.81
2023-04-14T21:22:44.147Z,100399.19
2023-04-14T21:25:10.594Z,100400.75
2023-04-14T21:27:37.313Z,100392.06
2023-04-14T21:30:04.619Z,100403.50
2023-04-14T21:32:31.115Z,100394.41
2023-04-14T21:34:57.804Z,100404.25
2023-04-14T21:37:25.020Z,100396.72
2023-04-14T21:39:51.466Z,100403.00
2023-04-14T21:42:17.936Z,100407.34
2023-04-14T21:44:44.490Z,100393.91
2023-04-14T21:47:10.990Z,100410.50
2023-04-14T21:49:37.516Z,100408.50
2023-04-14T21:52:04.013Z,100401.75
2023-04-14T21:54:31.818Z,100407.28
2023-04-14T21:56:59.281Z,100404.56
2023-04-14T21:59:25.872Z,100401.41
2023-04-14T22:01:52.343Z,100410.09
2023-04-14T22:04:33.122Z,100405.38
2023-04-14T22:07:02.776Z,100410.53
2023-04-14T22:09:29.244Z,100406.63
2023-04-14T22:11:56.516Z,100408.63
2023-04-14T22:14:23.534Z,100414.13
2023-04-14T22:16:50.112Z,100411.00
2023-04-14T22:19:16.805Z,100413.38
2023-04-14T22:21:43.626Z,100404.72
2023-04-14T22:24:10.407Z,100410.63
2023-04-14T22:26:36.849Z,100416.59
2023-04-14T22:29:04.162Z,100409.13
2023-04-14T22:31:31.088Z,100411.47
2023-04-14T22:33:57.598Z,100415.84
2023-04-14T22:36:24.187Z,100413.50
2023-04-14T22:38:50.702Z,100416.66
2023-04-14T22:41:18.335Z,100419.81
2023-04-14T22:43:44.851Z,100421.81
2023-04-14T22:46:11.713Z,100417.44
2023-04-14T22:48:38.200Z,100413.13
2023-04-14T22:51:04.633Z,100408.00
2023-04-14T22:53:31.345Z,100416.69
2023-04-14T22:55:58.275Z,100417.06
2023-04-14T22:58:25.208Z,100415.09
2023-04-14T23:00:51.866Z,100428.13
2023-04-14T23:03:18.443Z,100415.88
2023-04-14T23:05:45.083Z,100432.44
2023-04-14T23:08:11.562Z,100433.25
2023-04-14T23:10:37.984Z,100427.72
2023-04-14T23:13:04.447Z,100427.31
2023-04-14T23:15:31.112Z,100424.19
2023-04-14T23:17:57.579Z,100420.22
2023-04-14T23:20:24.791Z,100430.50
2023-04-14T23:22:51.462Z,100428.50
2023-04-14T23:25:18.297Z,100433.25
2023-04-14T23:27:44.765Z,100429.72
2023-04-14T23:30:11.444Z,100434.06
2023-04-14T23:32:37.931Z,100438.38
2023-04-14T23:35:05.495Z,100434.84
2023-04-14T23:37:31.946Z,100432.50
2023-04-14T23:39:58.391Z,100431.31
2023-04-14T23:42:24.835Z,100425.78
2023-04-14T23:44:51.463Z,100425.78
2023-04-14T23:47:18.155Z,100426.97
2023-04-14T23:49:44.613Z,100430.53
2023-04-14T23:52:11.200Z,100433.66
2023-04-14T23:54:37.659Z,100419.47
2023-04-14T23:57:04.424Z,100423.00
2023-04-14T23:59:31.214Z,100421.03
